Airfield :
LOGIN :

Register | Disclaimer

   EN    FR    IT 

 










Legend :    VFR   Marginal VFR   IFR   Intensive IFR   Very Intensive IFR
Visi :
Ceiling :
>= 8 km
>= 3000ft
5 to 8 km
1000 to 3000 ft
1500m to 5 km
500 to 1000 ft
800 to 1500m
200 to 500 ft
< 800m
< 200 ft
Symbols :   Thunderstorms  Fog  Heavy snow  Heavy precipitations  Wind > 20 kt
SIGMETs :     Misc.  Thunderstorms  Icing  Turbulence  Mountain Waves  Volcanic Ashes






- Airport Elevation : 13 ft
- IATA code : OST


EBOS - Oostend bruges Int.

CURRENT METAR :
  • 300220Z 20003KT 160V240 1500 BR FEW001 BKN002 BKN046 03/03 Q1023 TEMPO 0300 FG BKN001

EXPIRED METARs :
  • 300150Z 20006KT 0700 R08/P2000N R26/P2000N FG FEW001 BKN002 BKN046 03/03 Q1023 TEMPO 0300 FG BKN001
  • 300120Z 20004KT 170V250 1500 BR FEW001 BKN002 BKN048 03/03 Q1023 TEMPO 0300 FG BKN001
  • 300020Z 20004KT 0600 R08/P2000N R26/1700U FG FEW001 BKN002 BKN048 03/03 Q1023 TEMPO 0300 FG BKN001

TAF TAF EBOS
Valid from the 30 at 00:00 until the 01 at 06:00 UTC


292311Z 3000/0106 17003KT 0250 FG OVC001
BECMG 3010/3012 2000 BR BKN003
BECMG 3012/3014 6000 NSW FEW015
PROB30
TEMPO 3018/3023 4500 BR



MET'MAP, your aeronautical weather chart ! - Copyright ORBIFLY December 2007 - Disclaimer

ORBIFLY MET'MAP TEAM :

Programming & Development : Alexandra Zaïnal
Original concept : Baudouin d'Aumeries
Technical & hardware support : Manuel Goepfert
Assistance : Marc-Olivier Méhu




SOURCES & CREDITS :

   NOAA